createdAt,value
2023-02-14T00:02:03.178Z,3.70
2023-02-14T00:04:30.172Z,3.80
2023-02-14T00:06:57.073Z,4.00
2023-02-14T00:09:24.019Z,3.40
2023-02-14T00:11:54.307Z,3.80
2023-02-14T00:14:39.781Z,3.40
2023-02-14T00:17:06.836Z,3.70
2023-02-14T00:19:35.339Z,3.60
2023-02-14T00:22:02.567Z,3.70
2023-02-14T00:24:29.330Z,3.90
2023-02-14T00:26:56.268Z,4.10
2023-02-14T00:29:30.023Z,3.90
2023-02-14T00:31:56.863Z,3.80
2023-02-14T00:34:24.728Z,3.80
2023-02-14T00:36:54.096Z,3.40
2023-02-14T00:39:20.769Z,3.50
2023-02-14T00:41:47.950Z,3.60
2023-02-14T00:44:16.738Z,3.40
2023-02-14T00:46:43.503Z,3.80
2023-02-14T00:49:12.729Z,3.20
2023-02-14T00:51:39.696Z,3.10
2023-02-14T00:54:06.403Z,3.30
2023-02-14T00:56:33.258Z,3.60
2023-02-14T00:58:59.967Z,3.30
2023-02-14T01:01:26.828Z,3.40
2023-02-14T01:03:53.699Z,3.50
2023-02-14T01:06:20.457Z,3.20
2023-02-14T01:08:47.256Z,3.10
2023-02-14T01:11:18.771Z,3.40
2023-02-14T01:13:46.446Z,3.20
2023-02-14T01:16:16.021Z,3.60
2023-02-14T01:18:43.888Z,3.80
2023-02-14T01:21:19.654Z,3.60
2023-02-14T01:23:47.089Z,3.50
2023-02-14T01:26:14.816Z,3.30
2023-02-14T01:28:41.831Z,3.20
2023-02-14T01:31:33.066Z,3.40
2023-02-14T01:34:00.025Z,3.80
2023-02-14T01:36:35.537Z,4.00
2023-02-14T01:39:06.479Z,3.80
2023-02-14T01:41:34.100Z,4.00
2023-02-14T01:44:14.208Z,3.20
2023-02-14T01:46:41.901Z,3.00
2023-02-14T01:49:15.669Z,3.30
2023-02-14T01:51:50.597Z,3.10
2023-02-14T01:54:18.381Z,3.10
2023-02-14T01:56:48.867Z,3.60
2023-02-14T01:59:19.314Z,3.30
2023-02-14T02:01:47.323Z,3.10
2023-02-14T02:04:20.264Z,3.20
2023-02-14T02:06:49.808Z,3.50
2023-02-14T02:09:30.927Z,3.10
2023-02-14T02:11:57.714Z,3.40
2023-02-14T02:14:27.331Z,3.90
2023-02-14T02:17:29.122Z,3.50
2023-02-14T02:20:56.120Z,3.00
2023-02-14T02:24:06.699Z,3.50
2023-02-14T02:27:17.688Z,3.00
2023-02-14T02:30:24.905Z,3.30
2023-02-14T02:33:51.762Z,3.30
2023-02-14T02:37:01.799Z,3.40
2023-02-14T02:40:25.736Z,2.80
2023-02-14T02:46:14.112Z,3.40
2023-02-14T02:48:57.746Z,3.00
2023-02-14T02:51:58.179Z,3.20
2023-02-14T02:54:34.964Z,3.20
2023-02-14T02:57:06.141Z,3.10
2023-02-14T02:59:40.369Z,3.30
2023-02-14T03:02:23.924Z,3.80
2023-02-14T03:04:55.870Z,3.30
2023-02-14T03:07:41.751Z,3.50
2023-02-14T03:10:20.817Z,3.80
2023-02-14T03:21:31.134Z,3.80
2023-02-14T03:24:21.475Z,3.30
2023-02-14T03:27:03.462Z,3.50
2023-02-14T03:30:02.331Z,3.70
2023-02-14T03:32:34.568Z,4.00
2023-02-14T03:37:48.568Z,3.20
2023-02-14T03:40:25.614Z,3.20
2023-02-14T03:43:05.199Z,3.10
2023-02-14T03:45:33.636Z,3.50
2023-02-14T03:48:03.619Z,3.60
2023-02-14T03:50:30.878Z,3.40
2023-02-14T03:52:57.533Z,3.00
2023-02-14T03:55:28.061Z,3.20
2023-02-14T03:58:25.826Z,3.00
2023-02-14T04:00:55.803Z,3.20
2023-02-14T04:03:23.081Z,3.60
2023-02-14T04:05:51.795Z,3.20
2023-02-14T04:08:27.124Z,2.60
2023-02-14T04:10:54.312Z,2.70
2023-02-14T04:13:20.991Z,2.90
2023-02-14T04:15:47.925Z,3.20
2023-02-14T04:18:33.953Z,3.00
2023-02-14T04:21:01.015Z,2.70
2023-02-14T04:23:28.264Z,2.40
2023-02-14T04:25:55.422Z,2.70
2023-02-14T04:28:22.675Z,2.50
2023-02-14T04:30:50.079Z,2.90
2023-02-14T04:33:16.795Z,2.60
2023-02-14T04:35:43.828Z,2.60
2023-02-14T04:38:10.607Z,2.90
2023-02-14T04:40:37.331Z,3.00
2023-02-14T04:43:04.042Z,2.50
2023-02-14T04:45:31.410Z,3.00
2023-02-14T04:47:58.342Z,3.30
2023-02-14T04:50:25.757Z,2.90
2023-02-14T04:52:52.751Z,2.70
2023-02-14T04:55:19.643Z,2.60
2023-02-14T04:57:46.660Z,2.50
2023-02-14T05:00:15.197Z,2.80
2023-02-14T05:02:42.025Z,3.10
2023-02-14T05:05:09.089Z,3.20
2023-02-14T05:07:35.742Z,3.60
2023-02-14T05:10:04.108Z,3.20
2023-02-14T05:12:31.489Z,3.10
2023-02-14T05:14:58.137Z,2.90
2023-02-14T05:17:25.105Z,3.40
2023-02-14T05:19:51.982Z,3.50
2023-02-14T05:22:18.700Z,3.30
2023-02-14T05:24:45.517Z,3.20
2023-02-14T05:27:12.165Z,3.80
2023-02-14T05:29:40.886Z,3.90
2023-02-14T05:32:08.969Z,3.70
2023-02-14T05:34:35.755Z,3.70
2023-02-14T05:37:03.102Z,3.10
2023-02-14T05:39:30.683Z,3.00
2023-02-14T05:41:59.272Z,2.70
2023-02-14T05:44:27.480Z,2.80
2023-02-14T05:46:54.694Z,2.80
2023-02-14T05:49:21.788Z,2.50
2023-02-14T05:51:48.455Z,2.90
2023-02-14T05:54:15.428Z,2.60
2023-02-14T05:56:42.073Z,2.20
2023-02-14T05:59:09.421Z,2.30
2023-02-14T06:01:36.366Z,2.50
2023-02-14T06:04:03.304Z,2.40
2023-02-14T06:06:30.218Z,2.80
2023-02-14T06:08:56.837Z,3.20
2023-02-14T06:11:23.482Z,2.60
2023-02-14T06:13:50.937Z,2.60
2023-02-14T06:16:17.610Z,2.50
2023-02-14T06:18:44.250Z,3.00
2023-02-14T06:21:10.919Z,2.80
2023-02-14T06:23:38.008Z,3.20
2023-02-14T06:26:08.010Z,2.90
2023-02-14T06:28:35.518Z,3.10
2023-02-14T06:31:02.944Z,3.30
2023-02-14T06:33:29.969Z,3.00
2023-02-14T06:35:56.682Z,2.60
2023-02-14T06:38:24.072Z,3.50
2023-02-14T06:40:51.942Z,3.00
2023-02-14T06:43:18.682Z,2.60
2023-02-14T06:45:46.145Z,2.80
2023-02-14T06:48:13.224Z,2.90
2023-02-14T06:50:40.084Z,2.80
2023-02-14T06:53:06.773Z,2.70
2023-02-14T06:55:34.421Z,3.00
2023-02-14T06:58:01.278Z,2.50
2023-02-14T07:00:30.197Z,3.30
2023-02-14T07:02:57.939Z,3.20
2023-02-14T07:05:24.666Z,3.10
2023-02-14T07:07:53.416Z,3.30
2023-02-14T07:10:20.411Z,2.80
2023-02-14T07:12:47.254Z,3.20
2023-02-14T07:15:14.186Z,3.20
2023-02-14T07:17:41.322Z,3.60
2023-02-14T07:20:09.649Z,3.20
2023-02-14T07:22:37.152Z,3.00
2023-02-14T07:25:05.640Z,2.60
2023-02-14T07:27:33.241Z,2.90
2023-02-14T07:30:00.020Z,2.50
2023-02-14T07:32:27.026Z,2.70
2023-02-14T07:34:54.204Z,2.70
2023-02-14T07:37:21.328Z,2.40
2023-02-14T07:39:48.263Z,2.90
2023-02-14T07:42:15.246Z,2.40
2023-02-14T07:44:46.055Z,2.30
2023-02-14T07:47:12.819Z,2.50
2023-02-14T07:49:39.494Z,2.30
2023-02-14T07:52:06.584Z,2.30
2023-02-14T07:54:33.771Z,2.80
2023-02-14T07:57:00.724Z,2.50
2023-02-14T07:59:27.956Z,3.00
2023-02-14T08:01:55.185Z,3.10
2023-02-14T08:04:25.583Z,2.80
2023-02-14T08:06:53.092Z,2.90
2023-02-14T08:09:26.808Z,2.80
2023-02-14T08:12:15.276Z,2.70
2023-02-14T08:14:42.704Z,2.30
2023-02-14T08:17:10.211Z,2.50
2023-02-14T08:19:38.367Z,2.40
2023-02-14T08:22:05.738Z,2.20
2023-02-14T08:24:33.259Z,2.70
